sensor_id;sensor_type;location;lat;lon;timestamp;P1;durP1;ratioP1;P2;durP2;ratioP2
58752;SDS011;44525;46.052;13.610;2023-04-25T00:01:16;9.60;;;4.05;;
58752;SDS011;44525;46.052;13.610;2023-04-25T00:03:42;6.15;;;3.42;;
58752;SDS011;44525;46.052;13.610;2023-04-25T00:06:08;6.47;;;3.63;;
58752;SDS011;44525;46.052;13.610;2023-04-25T00:08:33;5.53;;;3.40;;
58752;SDS011;44525;46.052;13.610;2023-04-25T00:10:59;6.18;;;3.38;;
58752;SDS011;44525;46.052;13.610;2023-04-25T00:13:25;9.40;;;3.53;;
58752;SDS011;44525;46.052;13.610;2023-04-25T00:15:51;10.98;;;3.63;;
58752;SDS011;44525;46.052;13.610;2023-04-25T00:18:21;7.60;;;3.65;;
58752;SDS011;44525;46.052;13.610;2023-04-25T00:20:46;7.63;;;3.47;;
58752;SDS011;44525;46.052;13.610;2023-04-25T00:23:12;6.07;;;3.60;;
58752;SDS011;44525;46.052;13.610;2023-04-25T00:25:46;9.65;;;4.00;;
58752;SDS011;44525;46.052;13.610;2023-04-25T00:28:12;9.88;;;3.78;;
58752;SDS011;44525;46.052;13.610;2023-04-25T00:30:38;9.52;;;3.90;;
58752;SDS011;44525;46.052;13.610;2023-04-25T00:33:04;7.25;;;3.92;;
58752;SDS011;44525;46.052;13.610;2023-04-25T00:35:30;7.43;;;3.67;;
58752;SDS011;44525;46.052;13.610;2023-04-25T00:37:56;7.78;;;3.60;;
58752;SDS011;44525;46.052;13.610;2023-04-25T00:40:21;7.50;;;3.90;;
58752;SDS011;44525;46.052;13.610;2023-04-25T00:42:47;6.00;;;3.58;;
58752;SDS011;44525;46.052;13.610;2023-04-25T00:45:13;7.18;;;3.65;;
58752;SDS011;44525;46.052;13.610;2023-04-25T00:47:40;6.90;;;3.72;;
58752;SDS011;44525;46.052;13.610;2023-04-25T00:50:07;8.90;;;3.95;;
58752;SDS011;44525;46.052;13.610;2023-04-25T00:52:32;8.73;;;3.97;;
58752;SDS011;44525;46.052;13.610;2023-04-25T00:54:58;9.27;;;3.80;;
58752;SDS011;44525;46.052;13.610;2023-04-25T00:57:24;7.65;;;3.97;;
58752;SDS011;44525;46.052;13.610;2023-04-25T00:59:50;7.43;;;4.28;;
58752;SDS011;44525;46.052;13.610;2023-04-25T01:02:17;6.20;;;3.55;;
58752;SDS011;44525;46.052;13.610;2023-04-25T01:04:42;7.57;;;3.95;;
58752;SDS011;44525;46.052;13.610;2023-04-25T01:07:08;8.02;;;3.90;;
58752;SDS011;44525;46.052;13.610;2023-04-25T01:09:35;8.18;;;4.15;;
58752;SDS011;44525;46.052;13.610;2023-04-25T01:12:00;5.85;;;3.92;;
58752;SDS011;44525;46.052;13.610;2023-04-25T01:14:26;9.88;;;3.90;;
58752;SDS011;44525;46.052;13.610;2023-04-25T01:16:52;6.78;;;3.60;;
58752;SDS011;44525;46.052;13.610;2023-04-25T01:19:18;6.53;;;3.90;;
58752;SDS011;44525;46.052;13.610;2023-04-25T01:21:44;6.55;;;3.35;;
58752;SDS011;44525;46.052;13.610;2023-04-25T01:24:10;11.25;;;4.28;;
58752;SDS011;44525;46.052;13.610;2023-04-25T01:26:36;7.63;;;3.92;;
58752;SDS011;44525;46.052;13.610;2023-04-25T01:29:03;12.52;;;4.60;;
58752;SDS011;44525;46.052;13.610;2023-04-25T01:31:29;5.40;;;3.55;;
58752;SDS011;44525;46.052;13.610;2023-04-25T01:33:55;7.35;;;3.80;;
58752;SDS011;44525;46.052;13.610;2023-04-25T01:36:21;5.68;;;3.60;;
58752;SDS011;44525;46.052;13.610;2023-04-25T01:38:47;7.20;;;4.07;;
58752;SDS011;44525;46.052;13.610;2023-04-25T01:41:13;7.60;;;3.67;;
58752;SDS011;44525;46.052;13.610;2023-04-25T01:43:39;6.13;;;3.63;;
58752;SDS011;44525;46.052;13.610;2023-04-25T01:46:05;6.30;;;3.70;;
58752;SDS011;44525;46.052;13.610;2023-04-25T01:48:31;6.28;;;3.80;;
58752;SDS011;44525;46.052;13.610;2023-04-25T01:50:56;8.57;;;3.90;;
58752;SDS011;44525;46.052;13.610;2023-04-25T01:53:21;6.45;;;3.85;;
58752;SDS011;44525;46.052;13.610;2023-04-25T01:55:47;7.20;;;4.05;;
58752;SDS011;44525;46.052;13.610;2023-04-25T01:58:13;5.38;;;3.63;;
58752;SDS011;44525;46.052;13.610;2023-04-25T02:00:38;6.85;;;3.65;;
58752;SDS011;44525;46.052;13.610;2023-04-25T02:03:05;12.52;;;3.85;;
58752;SDS011;44525;46.052;13.610;2023-04-25T02:05:37;5.70;;;3.67;;
58752;SDS011;44525;46.052;13.610;2023-04-25T02:08:04;6.78;;;4.25;;
58752;SDS011;44525;46.052;13.610;2023-04-25T02:10:31;5.63;;;3.50;;
58752;SDS011;44525;46.052;13.610;2023-04-25T02:12:57;7.75;;;3.70;;
58752;SDS011;44525;46.052;13.610;2023-04-25T02:15:23;6.60;;;3.88;;
58752;SDS011;44525;46.052;13.610;2023-04-25T02:17:48;8.73;;;3.90;;
58752;SDS011;44525;46.052;13.610;2023-04-25T02:20:14;6.55;;;3.80;;
58752;SDS011;44525;46.052;13.610;2023-04-25T02:22:41;6.05;;;3.53;;
58752;SDS011;44525;46.052;13.610;2023-04-25T02:25:07;8.05;;;3.65;;
58752;SDS011;44525;46.052;13.610;2023-04-25T02:27:34;4.60;;;3.15;;
58752;SDS011;44525;46.052;13.610;2023-04-25T02:30:00;6.57;;;3.25;;
58752;SDS011;44525;46.052;13.610;2023-04-25T02:32:25;6.18;;;3.55;;
58752;SDS011;44525;46.052;13.610;2023-04-25T02:34:51;6.97;;;3.38;;
58752;SDS011;44525;46.052;13.610;2023-04-25T02:37:17;5.40;;;3.47;;
58752;SDS011;44525;46.052;13.610;2023-04-25T02:39:43;6.30;;;3.53;;
58752;SDS011;44525;46.052;13.610;2023-04-25T02:42:08;6.35;;;4.15;;
58752;SDS011;44525;46.052;13.610;2023-04-25T02:44:33;4.75;;;3.15;;
58752;SDS011;44525;46.052;13.610;2023-04-25T02:46:59;7.93;;;3.88;;
58752;SDS011;44525;46.052;13.610;2023-04-25T02:49:24;6.88;;;3.03;;
58752;SDS011;44525;46.052;13.610;2023-04-25T02:51:50;10.20;;;3.90;;
58752;SDS011;44525;46.052;13.610;2023-04-25T02:54:15;6.88;;;3.40;;
58752;SDS011;44525;46.052;13.610;2023-04-25T02:56:40;5.65;;;3.53;;
58752;SDS011;44525;46.052;13.610;2023-04-25T02:59:06;6.13;;;3.30;;
58752;SDS011;44525;46.052;13.610;2023-04-25T03:01:31;8.98;;;3.60;;
58752;SDS011;44525;46.052;13.610;2023-04-25T03:03:56;7.28;;;3.67;;
58752;SDS011;44525;46.052;13.610;2023-04-25T03:06:22;6.45;;;3.10;;
58752;SDS011;44525;46.052;13.610;2023-04-25T03:08:47;5.13;;;3.25;;
58752;SDS011;44525;46.052;13.610;2023-04-25T03:11:13;5.47;;;3.30;;
58752;SDS011;44525;46.052;13.610;2023-04-25T03:13:38;6.88;;;3.20;;
58752;SDS011;44525;46.052;13.610;2023-04-25T03:16:03;6.57;;;3.25;;
58752;SDS011;44525;46.052;13.610;2023-04-25T03:18:29;6.03;;;3.67;;
58752;SDS011;44525;46.052;13.610;2023-04-25T03:20:55;7.93;;;3.45;;
58752;SDS011;44525;46.052;13.610;2023-04-25T03:23:20;7.63;;;3.63;;
58752;SDS011;44525;46.052;13.610;2023-04-25T03:25:46;5.50;;;3.45;;
58752;SDS011;44525;46.052;13.610;2023-04-25T03:28:11;5.72;;;3.47;;
58752;SDS011;44525;46.052;13.610;2023-04-25T03:30:36;6.22;;;3.30;;
58752;SDS011;44525;46.052;13.610;2023-04-25T03:33:02;5.38;;;3.10;;
58752;SDS011;44525;46.052;13.610;2023-04-25T03:35:27;7.45;;;3.80;;
58752;SDS011;44525;46.052;13.610;2023-04-25T03:37:53;5.53;;;3.60;;
58752;SDS011;44525;46.052;13.610;2023-04-25T03:40:18;7.13;;;3.60;;
58752;SDS011;44525;46.052;13.610;2023-04-25T03:42:43;4.68;;;3.25;;
58752;SDS011;44525;46.052;13.610;2023-04-25T03:45:09;7.55;;;4.47;;
58752;SDS011;44525;46.052;13.610;2023-04-25T03:47:34;6.20;;;3.40;;
58752;SDS011;44525;46.052;13.610;2023-04-25T03:50:00;6.90;;;3.22;;
58752;SDS011;44525;46.052;13.610;2023-04-25T03:52:26;5.53;;;3.25;;
58752;SDS011;44525;46.052;13.610;2023-04-25T03:54:52;5.40;;;3.78;;
58752;SDS011;44525;46.052;13.610;2023-04-25T03:57:17;7.13;;;4.35;;
58752;SDS011;44525;46.052;13.610;2023-04-25T03:59:43;6.53;;;4.15;;
58752;SDS011;44525;46.052;13.610;2023-04-25T04:02:09;9.15;;;4.00;;
58752;SDS011;44525;46.052;13.610;2023-04-25T04:04:34;7.53;;;3.75;;
58752;SDS011;44525;46.052;13.610;2023-04-25T04:07:00;4.93;;;3.45;;
58752;SDS011;44525;46.052;13.610;2023-04-25T04:09:25;6.03;;;4.07;;
58752;SDS011;44525;46.052;13.610;2023-04-25T04:11:52;7.45;;;3.97;;
58752;SDS011;44525;46.052;13.610;2023-04-25T04:14:18;5.40;;;3.35;;
58752;SDS011;44525;46.052;13.610;2023-04-25T04:16:43;5.80;;;3.38;;
58752;SDS011;44525;46.052;13.610;2023-04-25T04:19:08;7.15;;;3.35;;
58752;SDS011;44525;46.052;13.610;2023-04-25T04:21:34;5.95;;;3.00;;
58752;SDS011;44525;46.052;13.610;2023-04-25T04:23:59;5.93;;;3.50;;
58752;SDS011;44525;46.052;13.610;2023-04-25T04:26:25;6.47;;;3.55;;
58752;SDS011;44525;46.052;13.610;2023-04-25T04:28:51;7.00;;;3.53;;
58752;SDS011;44525;46.052;13.610;2023-04-25T04:31:17;5.20;;;3.42;;
58752;SDS011;44525;46.052;13.610;2023-04-25T04:33:44;8.77;;;3.58;;
58752;SDS011;44525;46.052;13.610;2023-04-25T04:36:10;5.43;;;3.33;;
58752;SDS011;44525;46.052;13.610;2023-04-25T04:38:36;5.07;;;3.10;;
58752;SDS011;44525;46.052;13.610;2023-04-25T04:41:02;6.65;;;4.13;;
58752;SDS011;44525;46.052;13.610;2023-04-25T04:43:28;12.50;;;7.45;;
58752;SDS011;44525;46.052;13.610;2023-04-25T04:45:54;13.82;;;6.70;;
58752;SDS011;44525;46.052;13.610;2023-04-25T04:48:21;11.05;;;6.07;;
58752;SDS011;44525;46.052;13.610;2023-04-25T04:50:47;8.82;;;4.72;;
58752;SDS011;44525;46.052;13.610;2023-04-25T04:53:12;6.55;;;3.65;;
58752;SDS011;44525;46.052;13.610;2023-04-25T04:55:38;5.32;;;3.38;;
58752;SDS011;44525;46.052;13.610;2023-04-25T04:58:03;7.05;;;3.17;;
58752;SDS011;44525;46.052;13.610;2023-04-25T05:00:29;4.95;;;2.88;;
58752;SDS011;44525;46.052;13.610;2023-04-25T05:02:55;5.57;;;2.78;;
58752;SDS011;44525;46.052;13.610;2023-04-25T05:05:21;6.57;;;3.50;;
58752;SDS011;44525;46.052;13.610;2023-04-25T05:07:46;5.35;;;3.45;;
58752;SDS011;44525;46.052;13.610;2023-04-25T05:10:12;8.50;;;4.40;;
58752;SDS011;44525;46.052;13.610;2023-04-25T05:12:38;7.07;;;4.20;;
58752;SDS011;44525;46.052;13.610;2023-04-25T05:15:03;5.57;;;3.95;;
58752;SDS011;44525;46.052;13.610;2023-04-25T05:17:29;6.55;;;3.53;;
58752;SDS011;44525;46.052;13.610;2023-04-25T05:19:54;6.53;;;3.00;;
58752;SDS011;44525;46.052;13.610;2023-04-25T05:22:20;4.95;;;2.88;;
58752;SDS011;44525;46.052;13.610;2023-04-25T05:24:45;4.97;;;2.70;;
58752;SDS011;44525;46.052;13.610;2023-04-25T05:27:10;4.90;;;2.70;;
58752;SDS011;44525;46.052;13.610;2023-04-25T05:29:36;4.68;;;2.90;;
58752;SDS011;44525;46.052;13.610;2023-04-25T05:32:01;4.88;;;2.80;;
58752;SDS011;44525;46.052;13.610;2023-04-25T05:34:27;5.20;;;2.70;;
58752;SDS011;44525;46.052;13.610;2023-04-25T05:36:52;5.50;;;2.75;;
58752;SDS011;44525;46.052;13.610;2023-04-25T05:39:17;5.75;;;2.58;;
58752;SDS011;44525;46.052;13.610;2023-04-25T05:41:43;5.32;;;2.95;;
58752;SDS011;44525;46.052;13.610;2023-04-25T05:44:09;4.18;;;2.75;;
58752;SDS011;44525;46.052;13.610;2023-04-25T05:46:34;5.03;;;3.17;;
58752;SDS011;44525;46.052;13.610;2023-04-25T05:49:00;3.80;;;2.63;;
58752;SDS011;44525;46.052;13.610;2023-04-25T05:51:25;7.43;;;3.33;;
58752;SDS011;44525;46.052;13.610;2023-04-25T05:53:51;4.60;;;2.78;;
58752;SDS011;44525;46.052;13.610;2023-04-25T05:56:16;4.88;;;2.78;;
58752;SDS011;44525;46.052;13.610;2023-04-25T05:58:42;4.05;;;2.70;;
58752;SDS011;44525;46.052;13.610;2023-04-25T06:01:07;6.13;;;2.90;;
58752;SDS011;44525;46.052;13.610;2023-04-25T06:03:33;3.95;;;2.40;;
58752;SDS011;44525;46.052;13.610;2023-04-25T06:05:59;3.35;;;2.33;;
58752;SDS011;44525;46.052;13.610;2023-04-25T06:08:24;6.20;;;2.30;;
58752;SDS011;44525;46.052;13.610;2023-04-25T06:10:50;5.18;;;2.50;;
58752;SDS011;44525;46.052;13.610;2023-04-25T06:13:15;4.82;;;2.30;;
58752;SDS011;44525;46.052;13.610;2023-04-25T06:15:41;3.90;;;2.30;;
58752;SDS011;44525;46.052;13.610;2023-04-25T06:18:06;4.28;;;2.35;;
58752;SDS011;44525;46.052;13.610;2023-04-25T06:20:31;4.40;;;2.05;;
58752;SDS011;44525;46.052;13.610;2023-04-25T06:22:57;3.95;;;2.70;;
58752;SDS011;44525;46.052;13.610;2023-04-25T06:25:22;3.15;;;2.20;;
58752;SDS011;44525;46.052;13.610;2023-04-25T06:27:48;3.92;;;2.15;;
58752;SDS011;44525;46.052;13.610;2023-04-25T06:30:13;2.97;;;2.20;;
58752;SDS011;44525;46.052;13.610;2023-04-25T06:32:39;4.25;;;2.50;;
58752;SDS011;44525;46.052;13.610;2023-04-25T06:35:04;4.20;;;2.40;;
58752;SDS011;44525;46.052;13.610;2023-04-25T06:37:30;4.55;;;2.50;;
58752;SDS011;44525;46.052;13.610;2023-04-25T06:39:56;2.80;;;1.90;;
58752;SDS011;44525;46.052;13.610;2023-04-25T06:42:21;2.70;;;2.20;;
58752;SDS011;44525;46.052;13.610;2023-04-25T06:44:46;4.97;;;2.75;;
58752;SDS011;44525;46.052;13.610;2023-04-25T06:47:12;4.00;;;2.50;;
58752;SDS011;44525;46.052;13.610;2023-04-25T06:49:37;3.67;;;2.42;;
58752;SDS011;44525;46.052;13.610;2023-04-25T06:52:03;7.75;;;2.55;;
58752;SDS011;44525;46.052;13.610;2023-04-25T06:54:28;4.43;;;2.40;;
58752;SDS011;44525;46.052;13.610;2023-04-25T06:56:55;7.32;;;3.63;;
58752;SDS011;44525;46.052;13.610;2023-04-25T06:59:20;6.70;;;3.30;;
58752;SDS011;44525;46.052;13.610;2023-04-25T07:01:46;3.95;;;2.65;;
58752;SDS011;44525;46.052;13.610;2023-04-25T07:04:11;4.63;;;2.70;;
58752;SDS011;44525;46.052;13.610;2023-04-25T07:06:36;5.15;;;2.45;;
58752;SDS011;44525;46.052;13.610;2023-04-25T07:09:07;3.53;;;2.20;;
58752;SDS011;44525;46.052;13.610;2023-04-25T07:11:35;2.95;;;2.20;;
58752;SDS011;44525;46.052;13.610;2023-04-25T07:14:01;4.03;;;2.40;;
58752;SDS011;44525;46.052;13.610;2023-04-25T07:16:27;4.03;;;2.53;;
58752;SDS011;44525;46.052;13.610;2023-04-25T07:18:52;3.72;;;2.50;;
58752;SDS011;44525;46.052;13.610;2023-04-25T07:21:17;4.68;;;2.50;;
58752;SDS011;44525;46.052;13.610;2023-04-25T07:23:43;4.47;;;2.58;;
58752;SDS011;44525;46.052;13.610;2023-04-25T07:26:08;4.55;;;2.30;;
58752;SDS011;44525;46.052;13.610;2023-04-25T07:28:34;3.45;;;2.40;;
58752;SDS011;44525;46.052;13.610;2023-04-25T07:30:59;6.85;;;2.40;;
58752;SDS011;44525;46.052;13.610;2023-04-25T07:33:24;5.18;;;2.63;;
58752;SDS011;44525;46.052;13.610;2023-04-25T07:35:50;2.92;;;2.10;;
58752;SDS011;44525;46.052;13.610;2023-04-25T07:38:15;5.10;;;2.65;;
58752;SDS011;44525;46.052;13.610;2023-04-25T07:40:41;8.50;;;4.18;;
58752;SDS011;44525;46.052;13.610;2023-04-25T07:43:06;7.40;;;4.50;;
58752;SDS011;44525;46.052;13.610;2023-04-25T07:45:32;5.18;;;2.88;;
58752;SDS011;44525;46.052;13.610;2023-04-25T07:47:57;3.60;;;2.50;;
58752;SDS011;44525;46.052;13.610;2023-04-25T07:50:22;3.63;;;2.45;;
58752;SDS011;44525;46.052;13.610;2023-04-25T07:52:48;3.45;;;2.20;;
58752;SDS011;44525;46.052;13.610;2023-04-25T07:55:14;6.90;;;2.47;;
58752;SDS011;44525;46.052;13.610;2023-04-25T07:57:39;3.28;;;2.40;;
58752;SDS011;44525;46.052;13.610;2023-04-25T08:00:05;3.30;;;2.30;;
58752;SDS011;44525;46.052;13.610;2023-04-25T08:02:34;5.22;;;3.00;;
58752;SDS011;44525;46.052;13.610;2023-04-25T08:05:00;4.05;;;2.53;;
58752;SDS011;44525;46.052;13.610;2023-04-25T08:07:25;3.35;;;2.38;;
58752;SDS011;44525;46.052;13.610;2023-04-25T08:09:51;4.25;;;2.67;;
58752;SDS011;44525;46.052;13.610;2023-04-25T08:12:17;4.03;;;2.70;;
58752;SDS011;44525;46.052;13.610;2023-04-25T08:14:42;4.03;;;2.50;;
58752;SDS011;44525;46.052;13.610;2023-04-25T08:17:09;3.50;;;2.58;;
58752;SDS011;44525;46.052;13.610;2023-04-25T08:19:34;4.15;;;2.50;;
58752;SDS011;44525;46.052;13.610;2023-04-25T08:22:00;4.70;;;2.60;;
58752;SDS011;44525;46.052;13.610;2023-04-25T08:24:25;5.20;;;2.35;;
58752;SDS011;44525;46.052;13.610;2023-04-25T08:26:51;4.45;;;2.58;;
58752;SDS011;44525;46.052;13.610;2023-04-25T08:29:16;4.50;;;2.70;;
58752;SDS011;44525;46.052;13.610;2023-04-25T08:31:42;5.30;;;2.58;;
58752;SDS011;44525;46.052;13.610;2023-04-25T08:34:07;5.80;;;3.08;;
58752;SDS011;44525;46.052;13.610;2023-04-25T08:36:33;6.45;;;3.10;;
58752;SDS011;44525;46.052;13.610;2023-04-25T08:38:58;3.45;;;2.42;;
58752;SDS011;44525;46.052;13.610;2023-04-25T08:41:23;4.40;;;2.72;;
58752;SDS011;44525;46.052;13.610;2023-04-25T08:43:49;4.28;;;2.75;;
58752;SDS011;44525;46.052;13.610;2023-04-25T08:46:17;5.35;;;3.20;;
58752;SDS011;44525;46.052;13.610;2023-04-25T08:48:44;7.55;;;2.85;;
58752;SDS011;44525;46.052;13.610;2023-04-25T08:51:10;4.90;;;2.50;;
58752;SDS011;44525;46.052;13.610;2023-04-25T08:53:45;4.25;;;2.20;;
58752;SDS011;44525;46.052;13.610;2023-04-25T08:56:14;4.15;;;2.42;;
58752;SDS011;44525;46.052;13.610;2023-04-25T08:58:42;4.10;;;2.60;;
58752;SDS011;44525;46.052;13.610;2023-04-25T09:01:09;5.35;;;2.50;;
58752;SDS011;44525;46.052;13.610;2023-04-25T09:03:35;6.93;;;3.15;;
58752;SDS011;44525;46.052;13.610;2023-04-25T09:06:01;4.95;;;2.70;;
58752;SDS011;44525;46.052;13.610;2023-04-25T09:08:26;3.72;;;2.33;;
58752;SDS011;44525;46.052;13.610;2023-04-25T09:10:52;4.55;;;2.30;;
58752;SDS011;44525;46.052;13.610;2023-04-25T09:13:23;4.00;;;2.65;;
58752;SDS011;44525;46.052;13.610;2023-04-25T09:18:31;3.05;;;2.35;;
58752;SDS011;44525;46.052;13.610;2023-04-25T09:21:04;4.47;;;2.60;;
58752;SDS011;44525;46.052;13.610;2023-04-25T09:23:31;5.30;;;2.88;;
58752;SDS011;44525;46.052;13.610;2023-04-25T09:26:06;3.92;;;2.40;;
58752;SDS011;44525;46.052;13.610;2023-04-25T09:28:32;6.15;;;2.42;;
58752;SDS011;44525;46.052;13.610;2023-04-25T09:31:00;4.38;;;2.80;;
58752;SDS011;44525;46.052;13.610;2023-04-25T09:33:29;4.38;;;2.78;;
58752;SDS011;44525;46.052;13.610;2023-04-25T09:36:06;5.07;;;3.00;;
58752;SDS011;44525;46.052;13.610;2023-04-25T09:38:39;5.18;;;2.80;;
58752;SDS011;44525;46.052;13.610;2023-04-25T09:41:07;6.57;;;2.83;;
58752;SDS011;44525;46.052;13.610;2023-04-25T09:43:33;4.57;;;2.90;;
58752;SDS011;44525;46.052;13.610;2023-04-25T09:45:59;4.57;;;2.70;;
58752;SDS011;44525;46.052;13.610;2023-04-25T09:48:25;3.40;;;2.33;;
58752;SDS011;44525;46.052;13.610;2023-04-25T09:51:13;3.83;;;2.40;;
58752;SDS011;44525;46.052;13.610;2023-04-25T09:53:41;4.13;;;2.35;;
58752;SDS011;44525;46.052;13.610;2023-04-25T09:56:08;4.07;;;2.58;;
58752;SDS011;44525;46.052;13.610;2023-04-25T09:58:36;3.97;;;2.45;;
58752;SDS011;44525;46.052;13.610;2023-04-25T10:01:03;4.55;;;2.50;;
58752;SDS011;44525;46.052;13.610;2023-04-25T10:03:31;3.45;;;2.17;;
58752;SDS011;44525;46.052;13.610;2023-04-25T10:06:00;3.17;;;2.42;;
58752;SDS011;44525;46.052;13.610;2023-04-25T10:08:34;5.50;;;2.88;;
58752;SDS011;44525;46.052;13.610;2023-04-25T10:11:02;3.50;;;2.58;;
58752;SDS011;44525;46.052;13.610;2023-04-25T10:13:32;4.22;;;2.42;;
58752;SDS011;44525;46.052;13.610;2023-04-25T10:15:59;3.08;;;2.00;;
58752;SDS011;44525;46.052;13.610;2023-04-25T10:18:26;3.42;;;2.30;;
58752;SDS011;44525;46.052;13.610;2023-04-25T10:20:57;4.07;;;2.20;;
58752;SDS011;44525;46.052;13.610;2023-04-25T10:23:24;3.28;;;2.30;;
58752;SDS011;44525;46.052;13.610;2023-04-25T10:25:51;4.20;;;2.53;;
58752;SDS011;44525;46.052;13.610;2023-04-25T10:28:17;2.97;;;2.20;;
58752;SDS011;44525;46.052;13.610;2023-04-25T10:36:08;4.18;;;2.15;;
58752;SDS011;44525;46.052;13.610;2023-04-25T10:38:44;5.20;;;2.10;;
58752;SDS011;44525;46.052;13.610;2023-04-25T10:41:10;3.40;;;2.20;;
58752;SDS011;44525;46.052;13.610;2023-04-25T10:43:38;3.63;;;2.20;;
58752;SDS011;44525;46.052;13.610;2023-04-25T10:48:51;3.03;;;2.20;;
58752;SDS011;44525;46.052;13.610;2023-04-25T10:51:31;3.97;;;2.50;;
58752;SDS011;44525;46.052;13.610;2023-04-25T10:54:00;7.05;;;2.42;;
58752;SDS011;44525;46.052;13.610;2023-04-25T10:59:07;5.60;;;2.67;;
58752;SDS011;44525;46.052;13.610;2023-04-25T11:01:41;3.72;;;2.35;;
58752;SDS011;44525;46.052;13.610;2023-04-25T11:07:03;4.90;;;2.85;;
58752;SDS011;44525;46.052;13.610;2023-04-25T11:09:33;4.43;;;2.80;;
58752;SDS011;44525;46.052;13.610;2023-04-25T11:12:00;4.07;;;2.45;;
58752;SDS011;44525;46.052;13.610;2023-04-25T11:14:25;4.18;;;2.70;;
58752;SDS011;44525;46.052;13.610;2023-04-25T11:16:58;4.78;;;2.45;;
58752;SDS011;44525;46.052;13.610;2023-04-25T11:19:25;4.38;;;2.70;;
58752;SDS011;44525;46.052;13.610;2023-04-25T11:21:54;4.97;;;2.80;;
58752;SDS011;44525;46.052;13.610;2023-04-25T11:24:25;5.63;;;4.38;;
58752;SDS011;44525;46.052;13.610;2023-04-25T11:27:03;20.80;;;17.40;;
58752;SDS011;44525;46.052;13.610;2023-04-25T11:29:31;15.10;;;9.52;;
58752;SDS011;44525;46.052;13.610;2023-04-25T11:31:58;6.57;;;4.50;;
58752;SDS011;44525;46.052;13.610;2023-04-25T11:34:24;6.63;;;2.80;;
58752;SDS011;44525;46.052;13.610;2023-04-25T11:36:55;5.28;;;3.38;;
58752;SDS011;44525;46.052;13.610;2023-04-25T11:39:21;4.00;;;2.97;;
58752;SDS011;44525;46.052;13.610;2023-04-25T11:41:47;4.53;;;3.25;;
58752;SDS011;44525;46.052;13.610;2023-04-25T11:44:15;4.57;;;3.42;;
58752;SDS011;44525;46.052;13.610;2023-04-25T11:46:41;4.63;;;3.50;;
58752;SDS011;44525;46.052;13.610;2023-04-25T11:49:07;6.30;;;4.50;;
58752;SDS011;44525;46.052;13.610;2023-04-25T11:51:39;4.40;;;3.08;;
58752;SDS011;44525;46.052;13.610;2023-04-25T11:54:05;4.30;;;2.92;;
58752;SDS011;44525;46.052;13.610;2023-04-25T11:56:31;5.30;;;2.95;;
58752;SDS011;44525;46.052;13.610;2023-04-25T11:59:01;4.93;;;3.00;;
58752;SDS011;44525;46.052;13.610;2023-04-25T12:01:34;5.40;;;2.72;;
58752;SDS011;44525;46.052;13.610;2023-04-25T12:06:41;7.05;;;3.00;;
58752;SDS011;44525;46.052;13.610;2023-04-25T12:09:09;5.50;;;2.90;;
58752;SDS011;44525;46.052;13.610;2023-04-25T12:11:44;3.90;;;2.67;;
58752;SDS011;44525;46.052;13.610;2023-04-25T12:14:11;3.72;;;2.70;;
58752;SDS011;44525;46.052;13.610;2023-04-25T12:16:41;3.35;;;2.58;;
58752;SDS011;44525;46.052;13.610;2023-04-25T12:19:13;6.82;;;3.00;;
58752;SDS011;44525;46.052;13.610;2023-04-25T12:21:39;6.13;;;2.67;;
58752;SDS011;44525;46.052;13.610;2023-04-25T12:26:55;4.25;;;2.83;;
58752;SDS011;44525;46.052;13.610;2023-04-25T12:29:26;5.15;;;3.85;;
58752;SDS011;44525;46.052;13.610;2023-04-25T12:31:53;4.40;;;3.08;;
58752;SDS011;44525;46.052;13.610;2023-04-25T12:34:19;5.07;;;3.22;;
58752;SDS011;44525;46.052;13.610;2023-04-25T12:36:47;4.43;;;2.65;;
58752;SDS011;44525;46.052;13.610;2023-04-25T12:41:48;2.58;;;2.03;;
58752;SDS011;44525;46.052;13.610;2023-04-25T12:44:14;5.30;;;2.70;;
58752;SDS011;44525;46.052;13.610;2023-04-25T12:46:40;3.42;;;2.35;;
58752;SDS011;44525;46.052;13.610;2023-04-25T12:49:06;3.35;;;2.40;;
58752;SDS011;44525;46.052;13.610;2023-04-25T12:51:33;2.85;;;2.10;;
58752;SDS011;44525;46.052;13.610;2023-04-25T12:53:59;3.78;;;2.45;;
58752;SDS011;44525;46.052;13.610;2023-04-25T12:56:25;2.67;;;2.00;;
58752;SDS011;44525;46.052;13.610;2023-04-25T12:58:52;4.88;;;2.35;;
58752;SDS011;44525;46.052;13.610;2023-04-25T13:01:18;4.88;;;2.80;;
58752;SDS011;44525;46.052;13.610;2023-04-25T13:03:44;2.80;;;2.20;;
58752;SDS011;44525;46.052;13.610;2023-04-25T13:06:09;3.42;;;2.15;;
58752;SDS011;44525;46.052;13.610;2023-04-25T13:08:35;3.55;;;2.70;;
58752;SDS011;44525;46.052;13.610;2023-04-25T13:11:02;4.15;;;2.40;;
58752;SDS011;44525;46.052;13.610;2023-04-25T13:13:28;3.15;;;2.47;;
58752;SDS011;44525;46.052;13.610;2023-04-25T13:15:54;3.53;;;2.47;;
58752;SDS011;44525;46.052;13.610;2023-04-25T13:18:19;3.30;;;2.40;;
58752;SDS011;44525;46.052;13.610;2023-04-25T13:20:45;2.97;;;2.25;;
58752;SDS011;44525;46.052;13.610;2023-04-25T13:23:11;3.42;;;2.20;;
58752;SDS011;44525;46.052;13.610;2023-04-25T13:25:37;2.70;;;2.00;;
58752;SDS011;44525;46.052;13.610;2023-04-25T13:28:02;2.90;;;2.45;;
58752;SDS011;44525;46.052;13.610;2023-04-25T13:30:28;4.32;;;2.50;;
58752;SDS011;44525;46.052;13.610;2023-04-25T13:32:53;3.53;;;2.55;;
58752;SDS011;44525;46.052;13.610;2023-04-25T13:35:21;3.22;;;2.33;;
58752;SDS011;44525;46.052;13.610;2023-04-25T13:37:46;5.95;;;2.80;;
58752;SDS011;44525;46.052;13.610;2023-04-25T13:40:12;3.88;;;2.67;;
58752;SDS011;44525;46.052;13.610;2023-04-25T13:42:37;3.80;;;2.55;;
58752;SDS011;44525;46.052;13.610;2023-04-25T13:45:03;4.53;;;2.90;;
58752;SDS011;44525;46.052;13.610;2023-04-25T13:47:29;3.60;;;2.60;;
58752;SDS011;44525;46.052;13.610;2023-04-25T13:49:55;6.72;;;2.80;;
58752;SDS011;44525;46.052;13.610;2023-04-25T13:52:21;3.65;;;2.50;;
58752;SDS011;44525;46.052;13.610;2023-04-25T13:54:46;5.22;;;2.80;;
58752;SDS011;44525;46.052;13.610;2023-04-25T13:57:12;5.03;;;2.90;;
58752;SDS011;44525;46.052;13.610;2023-04-25T13:59:38;4.95;;;2.78;;
58752;SDS011;44525;46.052;13.610;2023-04-25T14:02:05;4.72;;;3.47;;
58752;SDS011;44525;46.052;13.610;2023-04-25T14:04:31;5.57;;;2.78;;
58752;SDS011;44525;46.052;13.610;2023-04-25T14:06:57;7.32;;;3.03;;
58752;SDS011;44525;46.052;13.610;2023-04-25T14:09:23;9.38;;;2.85;;
58752;SDS011;44525;46.052;13.610;2023-04-25T14:11:53;4.43;;;2.70;;
58752;SDS011;44525;46.052;13.610;2023-04-25T14:14:20;3.58;;;2.60;;
58752;SDS011;44525;46.052;13.610;2023-04-25T14:16:47;4.60;;;2.80;;
58752;SDS011;44525;46.052;13.610;2023-04-25T14:19:13;5.65;;;2.50;;
58752;SDS011;44525;46.052;13.610;2023-04-25T14:21:39;4.65;;;2.67;;
58752;SDS011;44525;46.052;13.610;2023-04-25T14:24:05;4.38;;;2.70;;
58752;SDS011;44525;46.052;13.610;2023-04-25T14:26:31;4.70;;;2.47;;
58752;SDS011;44525;46.052;13.610;2023-04-25T14:28:58;5.20;;;2.60;;
58752;SDS011;44525;46.052;13.610;2023-04-25T14:31:24;5.47;;;2.80;;
58752;SDS011;44525;46.052;13.610;2023-04-25T14:33:49;3.58;;;2.50;;
58752;SDS011;44525;46.052;13.610;2023-04-25T14:36:15;5.75;;;2.83;;
58752;SDS011;44525;46.052;13.610;2023-04-25T14:38:40;12.88;;;3.20;;
58752;SDS011;44525;46.052;13.610;2023-04-25T14:41:06;4.35;;;2.70;;
58752;SDS011;44525;46.052;13.610;2023-04-25T14:43:31;6.47;;;2.90;;
58752;SDS011;44525;46.052;13.610;2023-04-25T14:45:56;3.83;;;2.55;;
58752;SDS011;44525;46.052;13.610;2023-04-25T14:48:22;4.78;;;2.75;;
58752;SDS011;44525;46.052;13.610;2023-04-25T14:50:48;5.18;;;2.80;;
58752;SDS011;44525;46.052;13.610;2023-04-25T14:53:13;6.55;;;2.80;;